sensor_id;sensor_type;location;lat;lon;timestamp;temperature;humidity
18753;DHT22;9505;50.882;5.350;2022-09-09T00:02:19;15.40;99.90
18753;DHT22;9505;50.882;5.350;2022-09-09T00:07:43;15.40;99.90
18753;DHT22;9505;50.882;5.350;2022-09-09T00:15:21;15.20;99.90
18753;DHT22;9505;50.882;5.350;2022-09-09T00:18:03;15.20;99.90
18753;DHT22;9505;50.882;5.350;2022-09-09T00:23:18;15.10;99.90
18753;DHT22;9505;50.882;5.350;2022-09-09T00:25:48;15.00;99.90
18753;DHT22;9505;50.882;5.350;2022-09-09T00:28:20;14.90;99.90
18753;DHT22;9505;50.882;5.350;2022-09-09T00:30:47;14.90;99.90
18753;DHT22;9505;50.882;5.350;2022-09-09T00:33:16;14.80;99.90
18753;DHT22;9505;50.882;5.350;2022-09-09T00:35:58;14.70;99.90
18753;DHT22;9505;50.882;5.350;2022-09-09T00:38:37;14.60;99.90
18753;DHT22;9505;50.882;5.350;2022-09-09T00:44:02;14.50;99.90
18753;DHT22;9505;50.882;5.350;2022-09-09T00:55:05;14.20;99.90
18753;DHT22;9505;50.882;5.350;2022-09-09T00:57:35;14.20;99.90
18753;DHT22;9505;50.882;5.350;2022-09-09T01:14:29;13.90;99.90
18753;DHT22;9505;50.882;5.350;2022-09-09T01:19:52;13.90;99.90
18753;DHT22;9505;50.882;5.350;2022-09-09T01:22:50;14.00;99.90
18753;DHT22;9505;50.882;5.350;2022-09-09T01:27:48;14.10;99.90
18753;DHT22;9505;50.882;5.350;2022-09-09T01:30:17;14.10;99.90
18753;DHT22;9505;50.882;5.350;2022-09-09T01:32:51;14.20;99.90
18753;DHT22;9505;50.882;5.350;2022-09-09T01:38:17;14.40;99.90
18753;DHT22;9505;50.882;5.350;2022-09-09T01:40:43;14.50;99.90
18753;DHT22;9505;50.882;5.350;2022-09-09T01:43:09;14.60;99.90
18753;DHT22;9505;50.882;5.350;2022-09-09T01:45:35;14.60;99.90
18753;DHT22;9505;50.882;5.350;2022-09-09T01:48:01;14.70;99.90
18753;DHT22;9505;50.882;5.350;2022-09-09T01:50:28;14.80;99.90
18753;DHT22;9505;50.882;5.350;2022-09-09T01:52:57;15.00;99.90
18753;DHT22;9505;50.882;5.350;2022-09-09T01:55:41;15.00;99.90
18753;DHT22;9505;50.882;5.350;2022-09-09T02:03:35;15.30;99.90
18753;DHT22;9505;50.882;5.350;2022-09-09T02:08:55;15.30;99.90
18753;DHT22;9505;50.882;5.350;2022-09-09T02:11:27;15.30;99.90
18753;DHT22;9505;50.882;5.350;2022-09-09T02:13:56;15.30;99.90
18753;DHT22;9505;50.882;5.350;2022-09-09T02:16:32;15.30;99.90
18753;DHT22;9505;50.882;5.350;2022-09-09T02:19:06;15.40;99.90
18753;DHT22;9505;50.882;5.350;2022-09-09T02:21:33;15.40;99.90
18753;DHT22;9505;50.882;5.350;2022-09-09T02:24:03;15.30;99.90
18753;DHT22;9505;50.882;5.350;2022-09-09T02:26:31;15.40;99.90
18753;DHT22;9505;50.882;5.350;2022-09-09T02:29:01;15.30;99.90
18753;DHT22;9505;50.882;5.350;2022-09-09T02:31:27;15.30;99.90
18753;DHT22;9505;50.882;5.350;2022-09-09T02:34:01;15.30;99.90
18753;DHT22;9505;50.882;5.350;2022-09-09T02:36:29;15.30;99.90
18753;DHT22;9505;50.882;5.350;2022-09-09T02:38:56;15.30;99.90
18753;DHT22;9505;50.882;5.350;2022-09-09T02:41:48;15.30;99.90
18753;DHT22;9505;50.882;5.350;2022-09-09T02:44:17;15.30;99.90
18753;DHT22;9505;50.882;5.350;2022-09-09T02:52:19;15.40;99.90
18753;DHT22;9505;50.882;5.350;2022-09-09T02:54:48;15.30;99.90
18753;DHT22;9505;50.882;5.350;2022-09-09T02:57:22;15.30;99.90
18753;DHT22;9505;50.882;5.350;2022-09-09T02:59:49;15.30;99.90
18753;DHT22;9505;50.882;5.350;2022-09-09T03:02:15;15.30;99.90
18753;DHT22;9505;50.882;5.350;2022-09-09T03:04:41;15.30;99.90
18753;DHT22;9505;50.882;5.350;2022-09-09T03:07:10;15.30;99.90
18753;DHT22;9505;50.882;5.350;2022-09-09T03:09:36;15.30;99.90
18753;DHT22;9505;50.882;5.350;2022-09-09T03:12:02;15.30;99.90
18753;DHT22;9505;50.882;5.350;2022-09-09T03:14:29;15.40;99.90
18753;DHT22;9505;50.882;5.350;2022-09-09T03:16:56;15.40;99.90
18753;DHT22;9505;50.882;5.350;2022-09-09T03:19:23;15.30;99.90
18753;DHT22;9505;50.882;5.350;2022-09-09T03:21:49;15.40;99.90
18753;DHT22;9505;50.882;5.350;2022-09-09T03:24:15;15.40;99.90
18753;DHT22;9505;50.882;5.350;2022-09-09T03:26:41;15.50;99.90
18753;DHT22;9505;50.882;5.350;2022-09-09T03:29:10;15.50;99.90
18753;DHT22;9505;50.882;5.350;2022-09-09T03:31:38;15.50;99.90
18753;DHT22;9505;50.882;5.350;2022-09-09T03:34:03;15.60;99.90
18753;DHT22;9505;50.882;5.350;2022-09-09T03:36:29;15.70;99.90
18753;DHT22;9505;50.882;5.350;2022-09-09T03:38:56;15.70;99.90
18753;DHT22;9505;50.882;5.350;2022-09-09T03:41:22;15.70;99.90
18753;DHT22;9505;50.882;5.350;2022-09-09T03:43:52;15.70;99.90
18753;DHT22;9505;50.882;5.350;2022-09-09T03:46:22;15.70;99.90
18753;DHT22;9505;50.882;5.350;2022-09-09T03:48:48;15.70;99.90
18753;DHT22;9505;50.882;5.350;2022-09-09T03:51:14;15.80;99.90
18753;DHT22;9505;50.882;5.350;2022-09-09T03:53:41;15.80;99.90
18753;DHT22;9505;50.882;5.350;2022-09-09T03:56:07;15.80;99.90
18753;DHT22;9505;50.882;5.350;2022-09-09T03:58:34;15.80;99.90
18753;DHT22;9505;50.882;5.350;2022-09-09T04:01:03;15.80;99.90
18753;DHT22;9505;50.882;5.350;2022-09-09T04:03:29;15.80;99.90
18753;DHT22;9505;50.882;5.350;2022-09-09T04:05:58;15.70;99.90
18753;DHT22;9505;50.882;5.350;2022-09-09T04:08:24;15.70;99.90
18753;DHT22;9505;50.882;5.350;2022-09-09T04:10:53;15.60;99.90
18753;DHT22;9505;50.882;5.350;2022-09-09T04:13:24;15.60;99.90
18753;DHT22;9505;50.882;5.350;2022-09-09T04:15:54;15.60;99.90
18753;DHT22;9505;50.882;5.350;2022-09-09T04:18:21;15.50;99.90
18753;DHT22;9505;50.882;5.350;2022-09-09T04:20:48;15.50;99.90
18753;DHT22;9505;50.882;5.350;2022-09-09T04:23:14;15.50;99.90
18753;DHT22;9505;50.882;5.350;2022-09-09T04:25:51;15.50;99.90
18753;DHT22;9505;50.882;5.350;2022-09-09T04:28:18;15.50;99.90
18753;DHT22;9505;50.882;5.350;2022-09-09T04:30:44;15.50;99.90
18753;DHT22;9505;50.882;5.350;2022-09-09T04:33:11;15.40;99.90
18753;DHT22;9505;50.882;5.350;2022-09-09T04:35:37;15.40;99.90
18753;DHT22;9505;50.882;5.350;2022-09-09T04:38:04;15.50;99.90
18753;DHT22;9505;50.882;5.350;2022-09-09T04:40:31;15.50;99.90
18753;DHT22;9505;50.882;5.350;2022-09-09T04:43:00;15.50;99.90
18753;DHT22;9505;50.882;5.350;2022-09-09T04:45:26;15.50;99.90
18753;DHT22;9505;50.882;5.350;2022-09-09T04:47:53;15.50;99.90
18753;DHT22;9505;50.882;5.350;2022-09-09T04:50:19;15.50;99.90
18753;DHT22;9505;50.882;5.350;2022-09-09T04:52:45;15.40;99.90
18753;DHT22;9505;50.882;5.350;2022-09-09T04:55:11;15.40;99.90
18753;DHT22;9505;50.882;5.350;2022-09-09T04:57:38;15.40;99.90
18753;DHT22;9505;50.882;5.350;2022-09-09T05:00:04;15.40;99.90
18753;DHT22;9505;50.882;5.350;2022-09-09T05:02:31;15.40;99.90
18753;DHT22;9505;50.882;5.350;2022-09-09T05:04:58;15.40;99.90
18753;DHT22;9505;50.882;5.350;2022-09-09T05:07:24;15.40;99.90
18753;DHT22;9505;50.882;5.350;2022-09-09T05:09:51;15.50;99.90
18753;DHT22;9505;50.882;5.350;2022-09-09T05:12:17;15.60;99.90
18753;DHT22;9505;50.882;5.350;2022-09-09T05:14:43;15.70;99.90
18753;DHT22;9505;50.882;5.350;2022-09-09T05:17:09;15.70;99.90
18753;DHT22;9505;50.882;5.350;2022-09-09T05:19:35;15.70;99.90
18753;DHT22;9505;50.882;5.350;2022-09-09T05:22:00;15.80;99.90
18753;DHT22;9505;50.882;5.350;2022-09-09T05:24:26;15.70;99.90
18753;DHT22;9505;50.882;5.350;2022-09-09T05:26:52;15.70;99.90
18753;DHT22;9505;50.882;5.350;2022-09-09T05:29:18;15.70;99.90
18753;DHT22;9505;50.882;5.350;2022-09-09T05:31:45;15.70;99.90
18753;DHT22;9505;50.882;5.350;2022-09-09T05:34:11;15.70;99.90
18753;DHT22;9505;50.882;5.350;2022-09-09T05:36:37;15.70;99.90
18753;DHT22;9505;50.882;5.350;2022-09-09T05:39:03;15.80;99.90
18753;DHT22;9505;50.882;5.350;2022-09-09T05:41:28;15.80;99.90
18753;DHT22;9505;50.882;5.350;2022-09-09T05:43:54;15.90;99.90
18753;DHT22;9505;50.882;5.350;2022-09-09T05:46:22;16.00;99.90
18753;DHT22;9505;50.882;5.350;2022-09-09T05:48:49;16.00;99.90
18753;DHT22;9505;50.882;5.350;2022-09-09T05:51:20;16.10;99.90
18753;DHT22;9505;50.882;5.350;2022-09-09T05:53:47;16.10;99.90
18753;DHT22;9505;50.882;5.350;2022-09-09T05:56:15;16.20;99.90
18753;DHT22;9505;50.882;5.350;2022-09-09T05:58:41;16.20;99.90
18753;DHT22;9505;50.882;5.350;2022-09-09T06:03:41;16.20;99.90
18753;DHT22;9505;50.882;5.350;2022-09-09T06:06:09;16.20;99.90
18753;DHT22;9505;50.882;5.350;2022-09-09T06:08:37;16.20;99.90
18753;DHT22;9505;50.882;5.350;2022-09-09T06:11:04;16.20;99.90
18753;DHT22;9505;50.882;5.350;2022-09-09T06:13:31;16.40;99.90
18753;DHT22;9505;50.882;5.350;2022-09-09T06:15:57;16.50;99.90
18753;DHT22;9505;50.882;5.350;2022-09-09T06:18:24;16.50;99.90
18753;DHT22;9505;50.882;5.350;2022-09-09T06:21:01;16.50;99.90
18753;DHT22;9505;50.882;5.350;2022-09-09T06:23:28;16.60;99.90
18753;DHT22;9505;50.882;5.350;2022-09-09T06:26:16;16.70;99.90
18753;DHT22;9505;50.882;5.350;2022-09-09T06:28:48;16.80;99.90
18753;DHT22;9505;50.882;5.350;2022-09-09T06:31:16;16.80;99.90
18753;DHT22;9505;50.882;5.350;2022-09-09T06:33:50;16.80;99.90
18753;DHT22;9505;50.882;5.350;2022-09-09T06:36:23;17.10;99.90
18753;DHT22;9505;50.882;5.350;2022-09-09T06:38:49;17.10;99.90
18753;DHT22;9505;50.882;5.350;2022-09-09T06:41:17;17.30;99.90
18753;DHT22;9505;50.882;5.350;2022-09-09T06:43:44;17.60;99.90
18753;DHT22;9505;50.882;5.350;2022-09-09T06:46:17;17.60;99.90
18753;DHT22;9505;50.882;5.350;2022-09-09T06:48:44;17.60;99.90
18753;DHT22;9505;50.882;5.350;2022-09-09T06:51:20;18.20;99.90
18753;DHT22;9505;50.882;5.350;2022-09-09T06:53:47;20.00;99.90
18753;DHT22;9505;50.882;5.350;2022-09-09T06:58:47;20.50;99.90
18753;DHT22;9505;50.882;5.350;2022-09-09T07:01:21;19.70;99.90
18753;DHT22;9505;50.882;5.350;2022-09-09T07:03:49;18.90;99.90
18753;DHT22;9505;50.882;5.350;2022-09-09T07:06:18;18.50;99.90
18753;DHT22;9505;50.882;5.350;2022-09-09T07:08:48;18.10;99.90
18753;DHT22;9505;50.882;5.350;2022-09-09T07:11:14;17.70;99.90
18753;DHT22;9505;50.882;5.350;2022-09-09T07:13:39;17.30;99.90
18753;DHT22;9505;50.882;5.350;2022-09-09T07:16:10;17.20;99.90
18753;DHT22;9505;50.882;5.350;2022-09-09T07:18:36;17.40;99.90
18753;DHT22;9505;50.882;5.350;2022-09-09T07:21:03;17.50;99.90
18753;DHT22;9505;50.882;5.350;2022-09-09T07:23:29;17.50;99.90
18753;DHT22;9505;50.882;5.350;2022-09-09T07:25:56;17.60;99.90
18753;DHT22;9505;50.882;5.350;2022-09-09T07:28:22;17.80;99.90
18753;DHT22;9505;50.882;5.350;2022-09-09T07:30:59;17.90;99.90
18753;DHT22;9505;50.882;5.350;2022-09-09T07:33:26;17.90;99.90
18753;DHT22;9505;50.882;5.350;2022-09-09T07:35:52;18.40;99.90
18753;DHT22;9505;50.882;5.350;2022-09-09T07:38:19;18.70;99.90
18753;DHT22;9505;50.882;5.350;2022-09-09T07:40:46;18.60;99.90
18753;DHT22;9505;50.882;5.350;2022-09-09T07:43:12;18.50;99.90
18753;DHT22;9505;50.882;5.350;2022-09-09T07:45:37;18.60;99.90
18753;DHT22;9505;50.882;5.350;2022-09-09T07:48:04;18.60;99.90
18753;DHT22;9505;50.882;5.350;2022-09-09T07:50:30;18.70;99.90
18753;DHT22;9505;50.882;5.350;2022-09-09T07:52:56;18.60;99.90
18753;DHT22;9505;50.882;5.350;2022-09-09T07:55:22;18.70;99.90
18753;DHT22;9505;50.882;5.350;2022-09-09T07:57:52;18.70;99.90
18753;DHT22;9505;50.882;5.350;2022-09-09T08:00:18;18.90;99.90
18753;DHT22;9505;50.882;5.350;2022-09-09T08:02:45;18.90;99.90
18753;DHT22;9505;50.882;5.350;2022-09-09T08:05:12;18.70;99.90
18753;DHT22;9505;50.882;5.350;2022-09-09T08:07:38;18.30;99.90
18753;DHT22;9505;50.882;5.350;2022-09-09T08:10:04;18.20;99.90
18753;DHT22;9505;50.882;5.350;2022-09-09T08:12:31;18.00;99.90
18753;DHT22;9505;50.882;5.350;2022-09-09T08:14:57;17.80;99.90
18753;DHT22;9505;50.882;5.350;2022-09-09T08:17:23;17.80;99.90
18753;DHT22;9505;50.882;5.350;2022-09-09T08:19:49;17.70;99.90
18753;DHT22;9505;50.882;5.350;2022-09-09T08:22:14;17.80;99.90
18753;DHT22;9505;50.882;5.350;2022-09-09T08:24:40;17.80;99.90
18753;DHT22;9505;50.882;5.350;2022-09-09T08:27:06;17.80;99.90
18753;DHT22;9505;50.882;5.350;2022-09-09T08:29:32;17.80;99.90
18753;DHT22;9505;50.882;5.350;2022-09-09T08:31:58;17.80;99.90
18753;DHT22;9505;50.882;5.350;2022-09-09T08:34:25;17.70;99.90
18753;DHT22;9505;50.882;5.350;2022-09-09T08:36:52;17.70;99.90
18753;DHT22;9505;50.882;5.350;2022-09-09T08:39:20;17.70;99.90
18753;DHT22;9505;50.882;5.350;2022-09-09T08:52:27;17.70;99.90
18753;DHT22;9505;50.882;5.350;2022-09-09T08:54:56;17.70;99.90
18753;DHT22;9505;50.882;5.350;2022-09-09T08:57:25;17.70;99.90
18753;DHT22;9505;50.882;5.350;2022-09-09T08:59:55;17.80;99.90
18753;DHT22;9505;50.882;5.350;2022-09-09T09:12:55;18.40;99.90
18753;DHT22;9505;50.882;5.350;2022-09-09T09:15:25;18.50;99.90
18753;DHT22;9505;50.882;5.350;2022-09-09T09:17:51;18.60;99.90
18753;DHT22;9505;50.882;5.350;2022-09-09T09:20:21;18.60;99.90
18753;DHT22;9505;50.882;5.350;2022-09-09T09:22:54;18.50;99.90
18753;DHT22;9505;50.882;5.350;2022-09-09T09:25:23;18.40;99.90
18753;DHT22;9505;50.882;5.350;2022-09-09T09:33:47;17.50;99.90
18753;DHT22;9505;50.882;5.350;2022-09-09T09:36:15;17.30;99.90
18753;DHT22;9505;50.882;5.350;2022-09-09T09:38:52;17.10;99.90
18753;DHT22;9505;50.882;5.350;2022-09-09T09:41:30;17.30;99.90
18753;DHT22;9505;50.882;5.350;2022-09-09T09:43:56;17.50;99.90
18753;DHT22;9505;50.882;5.350;2022-09-09T09:46:23;17.90;99.90
18753;DHT22;9505;50.882;5.350;2022-09-09T09:49:05;18.10;99.90
18753;DHT22;9505;50.882;5.350;2022-09-09T09:51:34;18.10;99.90
18753;DHT22;9505;50.882;5.350;2022-09-09T09:54:33;18.30;99.90
18753;DHT22;9505;50.882;5.350;2022-09-09T09:59:36;18.90;99.90
18753;DHT22;9505;50.882;5.350;2022-09-09T10:02:25;19.20;99.90
18753;DHT22;9505;50.882;5.350;2022-09-09T10:05:25;19.10;99.90
18753;DHT22;9505;50.882;5.350;2022-09-09T10:18:38;18.20;99.90
18753;DHT22;9505;50.882;5.350;2022-09-09T10:35:38;16.80;99.90
18753;DHT22;9505;50.882;5.350;2022-09-09T10:51:45;16.50;99.90
18753;DHT22;9505;50.882;5.350;2022-09-09T10:57:00;17.10;99.90
18753;DHT22;9505;50.882;5.350;2022-09-09T10:59:35;17.40;99.90
18753;DHT22;9505;50.882;5.350;2022-09-09T11:04:44;17.80;99.90
18753;DHT22;9505;50.882;5.350;2022-09-09T11:07:14;17.80;99.90
18753;DHT22;9505;50.882;5.350;2022-09-09T11:09:49;17.80;99.90
18753;DHT22;9505;50.882;5.350;2022-09-09T11:12:19;18.10;99.90
18753;DHT22;9505;50.882;5.350;2022-09-09T11:14:59;18.10;99.90
18753;DHT22;9505;50.882;5.350;2022-09-09T11:17:53;18.10;99.90
18753;DHT22;9505;50.882;5.350;2022-09-09T11:20:18;18.20;99.90
18753;DHT22;9505;50.882;5.350;2022-09-09T11:23:32;18.70;99.90
18753;DHT22;9505;50.882;5.350;2022-09-09T11:25:43;18.70;99.90
18753;DHT22;9505;50.882;5.350;2022-09-09T11:28:25;18.80;99.90
18753;DHT22;9505;50.882;5.350;2022-09-09T11:39:23;18.70;99.90
18753;DHT22;9505;50.882;5.350;2022-09-09T11:41:53;18.60;99.90
18753;DHT22;9505;50.882;5.350;2022-09-09T11:44:31;18.50;99.90
18753;DHT22;9505;50.882;5.350;2022-09-09T11:46:56;18.80;99.90
18753;DHT22;9505;50.882;5.350;2022-09-09T11:49:47;19.20;99.90
18753;DHT22;9505;50.882;5.350;2022-09-09T11:52:35;19.40;99.90
18753;DHT22;9505;50.882;5.350;2022-09-09T11:55:19;19.50;99.90
18753;DHT22;9505;50.882;5.350;2022-09-09T11:58:01;19.40;99.90
18753;DHT22;9505;50.882;5.350;2022-09-09T12:00:34;19.00;99.90
18753;DHT22;9505;50.882;5.350;2022-09-09T12:03:00;18.70;99.90
18753;DHT22;9505;50.882;5.350;2022-09-09T12:05:46;18.40;99.90
18753;DHT22;9505;50.882;5.350;2022-09-09T12:08:17;18.20;99.90
18753;DHT22;9505;50.882;5.350;2022-09-09T12:10:56;17.70;99.90
18753;DHT22;9505;50.882;5.350;2022-09-09T12:13:24;17.20;99.90
18753;DHT22;9505;50.882;5.350;2022-09-09T12:15:52;16.80;99.90
18753;DHT22;9505;50.882;5.350;2022-09-09T12:18:39;16.50;99.90
18753;DHT22;9505;50.882;5.350;2022-09-09T12:21:12;16.00;99.90
18753;DHT22;9505;50.882;5.350;2022-09-09T12:23:54;15.80;99.90
18753;DHT22;9505;50.882;5.350;2022-09-09T12:31:44;15.40;99.90
18753;DHT22;9505;50.882;5.350;2022-09-09T12:37:13;15.80;99.90
18753;DHT22;9505;50.882;5.350;2022-09-09T12:39:58;16.10;99.90
18753;DHT22;9505;50.882;5.350;2022-09-09T12:42:25;16.50;99.90
18753;DHT22;9505;50.882;5.350;2022-09-09T12:44:57;16.80;99.90
18753;DHT22;9505;50.882;5.350;2022-09-09T12:50:00;17.40;99.90
18753;DHT22;9505;50.882;5.350;2022-09-09T12:52:32;17.70;99.90
18753;DHT22;9505;50.882;5.350;2022-09-09T12:55:01;18.00;99.90
18753;DHT22;9505;50.882;5.350;2022-09-09T12:57:33;18.40;99.90
18753;DHT22;9505;50.882;5.350;2022-09-09T13:00:17;18.80;99.90
18753;DHT22;9505;50.882;5.350;2022-09-09T13:03:00;18.80;99.90
18753;DHT22;9505;50.882;5.350;2022-09-09T13:05:44;18.70;99.90
18753;DHT22;9505;50.882;5.350;2022-09-09T13:08:13;18.80;99.90
18753;DHT22;9505;50.882;5.350;2022-09-09T13:10:57;18.70;99.90
18753;DHT22;9505;50.882;5.350;2022-09-09T13:13:52;18.80;99.90
18753;DHT22;9505;50.882;5.350;2022-09-09T13:16:30;19.10;99.90
18753;DHT22;9505;50.882;5.350;2022-09-09T13:18:57;19.40;99.90
18753;DHT22;9505;50.882;5.350;2022-09-09T13:21:34;19.70;99.90
18753;DHT22;9505;50.882;5.350;2022-09-09T13:24:00;20.10;99.90
18753;DHT22;9505;50.882;5.350;2022-09-09T13:26:29;20.00;99.90
18753;DHT22;9505;50.882;5.350;2022-09-09T13:29:07;20.10;99.90
18753;DHT22;9505;50.882;5.350;2022-09-09T13:31:36;20.50;99.90
18753;DHT22;9505;50.882;5.350;2022-09-09T13:34:12;20.70;99.90
18753;DHT22;9505;50.882;5.350;2022-09-09T13:36:38;20.60;99.90
18753;DHT22;9505;50.882;5.350;2022-09-09T13:39:05;20.70;99.90
18753;DHT22;9505;50.882;5.350;2022-09-09T13:41:42;20.50;99.90
18753;DHT22;9505;50.882;5.350;2022-09-09T13:44:39;20.50;99.90
18753;DHT22;9505;50.882;5.350;2022-09-09T13:47:33;21.10;99.90
18753;DHT22;9505;50.882;5.350;2022-09-09T13:50:21;21.60;99.90
18753;DHT22;9505;50.882;5.350;2022-09-09T13:52:52;21.70;99.90
18753;DHT22;9505;50.882;5.350;2022-09-09T13:55:20;21.90;99.90
18753;DHT22;9505;50.882;5.350;2022-09-09T13:58:02;21.80;99.90
18753;DHT22;9505;50.882;5.350;2022-09-09T14:00:32;21.60;99.90
18753;DHT22;9505;50.882;5.350;2022-09-09T14:02:59;21.40;99.90
18753;DHT22;9505;50.882;5.350;2022-09-09T14:05:28;21.20;99.90
18753;DHT22;9505;50.882;5.350;2022-09-09T14:07:55;20.90;99.90
18753;DHT22;9505;50.882;5.350;2022-09-09T14:10:21;21.00;99.90
18753;DHT22;9505;50.882;5.350;2022-09-09T14:12:47;21.10;99.90
18753;DHT22;9505;50.882;5.350;2022-09-09T14:15:13;21.40;99.90
18753;DHT22;9505;50.882;5.350;2022-09-09T14:17:39;21.90;99.90
18753;DHT22;9505;50.882;5.350;2022-09-09T14:20:06;22.40;99.90
18753;DHT22;9505;50.882;5.350;2022-09-09T14:22:36;22.20;99.90
18753;DHT22;9505;50.882;5.350;2022-09-09T14:25:02;22.00;99.90
18753;DHT22;9505;50.882;5.350;2022-09-09T14:27:28;21.40;99.90
18753;DHT22;9505;50.882;5.350;2022-09-09T14:29:55;21.20;99.90
18753;DHT22;9505;50.882;5.350;2022-09-09T14:32:21;21.10;99.90
18753;DHT22;9505;50.882;5.350;2022-09-09T14:34:47;20.70;99.90
18753;DHT22;9505;50.882;5.350;2022-09-09T14:37:15;20.60;99.90
18753;DHT22;9505;50.882;5.350;2022-09-09T14:39:42;20.70;99.90
18753;DHT22;9505;50.882;5.350;2022-09-09T14:42:10;20.90;99.90
18753;DHT22;9505;50.882;5.350;2022-09-09T14:44:36;21.30;99.90
18753;DHT22;9505;50.882;5.350;2022-09-09T14:47:06;21.50;99.90
18753;DHT22;9505;50.882;5.350;2022-09-09T14:49:36;21.10;99.90
18753;DHT22;9505;50.882;5.350;2022-09-09T14:52:02;20.80;99.90
18753;DHT22;9505;50.882;5.350;2022-09-09T14:54:28;21.00;99.90
18753;DHT22;9505;50.882;5.350;2022-09-09T14:56:54;21.60;99.90
18753;DHT22;9505;50.882;5.350;2022-09-09T14:59:20;21.80;99.90
18753;DHT22;9505;50.882;5.350;2022-09-09T15:01:47;21.20;99.90
18753;DHT22;9505;50.882;5.350;2022-09-09T15:04:13;21.30;99.90
18753;DHT22;9505;50.882;5.350;2022-09-09T15:06:42;21.20;99.90
18753;DHT22;9505;50.882;5.350;2022-09-09T15:09:10;20.80;99.90
18753;DHT22;9505;50.882;5.350;2022-09-09T15:11:37;20.60;99.90
18753;DHT22;9505;50.882;5.350;2022-09-09T15:14:04;20.60;99.90
18753;DHT22;9505;50.882;5.350;2022-09-09T15:16:30;20.30;99.90
18753;DHT22;9505;50.882;5.350;2022-09-09T15:18:59;20.40;99.90
18753;DHT22;9505;50.882;5.350;2022-09-09T15:21:32;21.00;99.90
18753;DHT22;9505;50.882;5.350;2022-09-09T15:23:58;21.70;99.90
18753;DHT22;9505;50.882;5.350;2022-09-09T15:26:24;21.60;99.90
18753;DHT22;9505;50.882;5.350;2022-09-09T15:28:51;21.40;99.90
18753;DHT22;9505;50.882;5.350;2022-09-09T15:31:22;20.60;99.90
18753;DHT22;9505;50.882;5.350;2022-09-09T15:33:52;20.30;99.90
18753;DHT22;9505;50.882;5.350;2022-09-09T15:36:26;20.10;99.90
18753;DHT22;9505;50.882;5.350;2022-09-09T15:38:52;20.10;99.90
18753;DHT22;9505;50.882;5.350;2022-09-09T15:41:19;20.20;99.90
18753;DHT22;9505;50.882;5.350;2022-09-09T15:43:46;20.40;99.90
18753;DHT22;9505;50.882;5.350;2022-09-09T15:46:33;20.50;99.90
18753;DHT22;9505;50.882;5.350;2022-09-09T15:51:32;21.00;99.90
18753;DHT22;9505;50.882;5.350;2022-09-09T15:53:59;21.50;99.90
18753;DHT22;9505;50.882;5.350;2022-09-09T15:56:29;21.80;99.90
18753;DHT22;9505;50.882;5.350;2022-09-09T15:58:58;22.50;99.90
18753;DHT22;9505;50.882;5.350;2022-09-09T16:01:25;22.50;99.90
18753;DHT22;9505;50.882;5.350;2022-09-09T16:03:51;22.70;99.90
18753;DHT22;9505;50.882;5.350;2022-09-09T16:06:19;22.30;99.90
18753;DHT22;9505;50.882;5.350;2022-09-09T16:08:48;21.70;99.90
18753;DHT22;9505;50.882;5.350;2022-09-09T16:11:37;21.30;99.90
18753;DHT22;9505;50.882;5.350;2022-09-09T16:14:03;20.90;99.90
18753;DHT22;9505;50.882;5.350;2022-09-09T16:16:29;20.70;99.90
18753;DHT22;9505;50.882;5.350;2022-09-09T16:19:00;20.30;99.90
18753;DHT22;9505;50.882;5.350;2022-09-09T16:21:33;19.90;99.90
18753;DHT22;9505;50.882;5.350;2022-09-09T16:24:02;19.70;99.90
18753;DHT22;9505;50.882;5.350;2022-09-09T16:26:29;19.40;99.90
18753;DHT22;9505;50.882;5.350;2022-09-09T16:28:56;19.20;99.90
18753;DHT22;9505;50.882;5.350;2022-09-09T16:31:24;18.90;99.90
18753;DHT22;9505;50.882;5.350;2022-09-09T16:33:50;18.70;99.90
18753;DHT22;9505;50.882;5.350;2022-09-09T16:36:18;18.50;99.90
18753;DHT22;9505;50.882;5.350;2022-09-09T16:38:45;18.40;99.90
18753;DHT22;9505;50.882;5.350;2022-09-09T16:41:11;18.30;99.90
18753;DHT22;9505;50.882;5.350;2022-09-09T16:43:38;18.30;99.90
18753;DHT22;9505;50.882;5.350;2022-09-09T16:46:17;18.30;99.90
18753;DHT22;9505;50.882;5.350;2022-09-09T16:48:45;18.50;99.90
18753;DHT22;9505;50.882;5.350;2022-09-09T16:53:39;19.20;99.90
18753;DHT22;9505;50.882;5.350;2022-09-09T16:56:08;19.50;99.90
18753;DHT22;9505;50.882;5.350;2022-09-09T16:58:34;19.50;99.90
18753;DHT22;9505;50.882;5.350;2022-09-09T17:01:04;19.40;99.90
18753;DHT22;9505;50.882;5.350;2022-09-09T17:03:30;19.10;99.90
18753;DHT22;9505;50.882;5.350;2022-09-09T17:05:59;18.80;99.90
18753;DHT22;9505;50.882;5.350;2022-09-09T17:08:29;18.70;99.90
18753;DHT22;9505;50.882;5.350;2022-09-09T17:10:55;18.60;99.90
18753;DHT22;9505;50.882;5.350;2022-09-09T17:13:20;18.50;99.90
18753;DHT22;9505;50.882;5.350;2022-09-09T17:15:46;18.50;99.90
18753;DHT22;9505;50.882;5.350;2022-09-09T17:18:12;18.50;99.90
18753;DHT22;9505;50.882;5.350;2022-09-09T17:20:39;18.50;99.90
18753;DHT22;9505;50.882;5.350;2022-09-09T17:23:09;18.40;99.90
18753;DHT22;9505;50.882;5.350;2022-09-09T17:25:36;18.30;99.90
18753;DHT22;9505;50.882;5.350;2022-09-09T17:28:02;18.40;99.90
18753;DHT22;9505;50.882;5.350;2022-09-09T17:30:34;18.40;99.90
18753;DHT22;9505;50.882;5.350;2022-09-09T17:33:00;18.40;99.90
18753;DHT22;9505;50.882;5.350;2022-09-09T17:35:26;18.30;99.90
18753;DHT22;9505;50.882;5.350;2022-09-09T17:37:54;18.30;99.90
18753;DHT22;9505;50.882;5.350;2022-09-09T17:40:20;18.30;99.90
18753;DHT22;9505;50.882;5.350;2022-09-09T17:42:46;18.20;99.90
18753;DHT22;9505;50.882;5.350;2022-09-09T17:45:12;18.20;99.90
18753;DHT22;9505;50.882;5.350;2022-09-09T17:47:38;18.10;99.90
18753;DHT22;9505;50.882;5.350;2022-09-09T17:50:05;18.20;99.90
18753;DHT22;9505;50.882;5.350;2022-09-09T17:52:32;18.20;99.90
18753;DHT22;9505;50.882;5.350;2022-09-09T17:54:57;18.00;99.90
18753;DHT22;9505;50.882;5.350;2022-09-09T17:57:23;17.90;99.90
18753;DHT22;9505;50.882;5.350;2022-09-09T17:59:50;17.90;99.90
18753;DHT22;9505;50.882;5.350;2022-09-09T18:02:15;17.80;99.90
18753;DHT22;9505;50.882;5.350;2022-09-09T18:04:41;17.70;99.90
18753;DHT22;9505;50.882;5.350;2022-09-09T18:07:07;17.70;99.90
18753;DHT22;9505;50.882;5.350;2022-09-09T18:09:33;17.70;99.90
18753;DHT22;9505;50.882;5.350;2022-09-09T18:11:59;17.60;99.90
18753;DHT22;9505;50.882;5.350;2022-09-09T18:14:29;17.50;99.90
18753;DHT22;9505;50.882;5.350;2022-09-09T18:16:55;17.40;99.90
18753;DHT22;9505;50.882;5.350;2022-09-09T18:19:24;17.40;99.90
18753;DHT22;9505;50.882;5.350;2022-09-09T18:21:50;17.10;99.90
18753;DHT22;9505;50.882;5.350;2022-09-09T18:24:17;17.10;99.90
18753;DHT22;9505;50.882;5.350;2022-09-09T18:26:44;16.90;99.90
18753;DHT22;9505;50.882;5.350;2022-09-09T18:29:11;16.90;99.90
18753;DHT22;9505;50.882;5.350;2022-09-09T18:31:37;16.90;99.90
18753;DHT22;9505;50.882;5.350;2022-09-09T18:34:05;16.80;99.90
18753;DHT22;9505;50.882;5.350;2022-09-09T18:36:34;16.70;99.90
18753;DHT22;9505;50.882;5.350;2022-09-09T18:39:01;16.70;99.90
18753;DHT22;9505;50.882;5.350;2022-09-09T18:41:33;16.60;99.90
18753;DHT22;9505;50.882;5.350;2022-09-09T18:44:01;16.60;99.90